Time;durP1;ratioP1;P1;durP2;ratioP2;P2;SDS_P1;SDS_P2;PMS_P1;PMS_P2;Temp;Humidity;BMP_temperature;BMP_pressure;BME280_temperature;BME280_humidity;BME280_pressure;Samples;Min_cycle;Max_cycle;Signal;HPM_P1;HPM_P2
2022/08/06 00:02:25;;;;;;;7.13;5.00;;;11.80;99.90;;;;;;4860193;29;20062;-66
2022/08/06 00:04:51;;;;;;;9.95;4.93;;;11.80;99.90;;;;;;4858588;29;20064;-66
2022/08/06 00:07:17;;;;;;;8.30;4.80;;;11.80;99.90;;;;;;4841929;29;20111;-66
2022/08/06 00:09:43;;;;;;;5.53;4.63;;;11.80;99.90;;;;;;4842176;29;20088;-66
2022/08/06 00:12:09;;;;;;;5.57;4.15;;;11.80;99.90;;;;;;4861552;29;20081;-66
2022/08/06 00:14:35;;;;;;;6.13;4.50;;;11.70;99.90;;;;;;4858745;29;20460;-66
2022/08/06 00:17:00;;;;;;;6.40;5.10;;;11.70;99.90;;;;;;4861436;29;20057;-66
2022/08/06 00:19:26;;;;;;;9.07;5.50;;;11.70;99.90;;;;;;4860063;29;20169;-66
2022/08/06 00:21:53;;;;;;;7.57;4.72;;;11.70;99.90;;;;;;4838294;29;20075;-66
2022/08/06 00:24:19;;;;;;;6.07;4.60;;;11.70;99.90;;;;;;4861233;29;20140;-66
2022/08/06 00:26:45;;;;;;;7.63;4.25;;;11.60;99.90;;;;;;4845187;29;20061;-66
2022/08/06 00:29:11;;;;;;;9.50;4.93;;;11.60;99.90;;;;;;4843028;29;20182;-66
2022/08/06 00:31:37;;;;;;;6.13;4.93;;;11.60;99.90;;;;;;4843643;29;20247;-66
2022/08/06 00:34:03;;;;;;;7.03;5.32;;;11.50;99.90;;;;;;4860602;29;20797;-66
2022/08/06 00:36:31;;;;;;;6.60;4.65;;;11.50;99.90;;;;;;4859858;29;20064;-66
2022/08/06 00:38:58;;;;;;;9.30;5.50;;;11.40;99.90;;;;;;4857073;29;20132;-66
2022/08/06 00:41:25;;;;;;;6.97;4.45;;;11.40;99.90;;;;;;4847596;29;20079;-65
2022/08/06 00:43:50;;;;;;;8.80;5.20;;;11.40;99.90;;;;;;4860035;29;20065;-66
2022/08/06 00:46:16;;;;;;;8.15;5.03;;;11.40;99.90;;;;;;4861226;29;20050;-66
2022/08/06 00:48:42;;;;;;;6.93;4.88;;;11.40;99.90;;;;;;4843267;29;20045;-66
2022/08/06 00:51:08;;;;;;;7.07;4.53;;;11.30;99.90;;;;;;4859907;29;20057;-66
2022/08/06 00:53:35;;;;;;;5.90;4.53;;;11.30;99.90;;;;;;4860845;29;20061;-66
2022/08/06 00:56:01;;;;;;;7.18;4.70;;;11.30;99.90;;;;;;4843010;29;20057;-66
2022/08/06 00:58:28;;;;;;;7.40;4.93;;;11.30;99.90;;;;;;4844628;29;20388;-66
2022/08/06 01:00:53;;;;;;;5.53;4.72;;;11.30;99.90;;;;;;4860026;29;20542;-66
2022/08/06 01:03:19;;;;;;;5.85;4.50;;;11.30;99.90;;;;;;4861715;29;20137;-66
2022/08/06 01:05:44;;;;;;;7.13;4.10;;;11.30;99.90;;;;;;4856551;29;20499;-66
2022/08/06 01:08:11;;;;;;;5.88;3.80;;;11.30;99.90;;;;;;4860680;29;20051;-66
2022/08/06 01:10:37;;;;;;;6.65;4.30;;;11.30;99.90;;;;;;4843779;29;20114;-66
2022/08/06 01:13:04;;;;;;;5.97;3.75;;;11.30;99.90;;;;;;4861147;29;20053;-66
2022/08/06 01:15:31;;;;;;;7.63;3.53;;;11.20;99.90;;;;;;4856612;29;20168;-66
2022/08/06 01:18:09;;;;;;;5.60;4.10;;;11.20;99.90;;;;;;4859477;29;20455;-66
2022/08/06 01:20:51;;;;;;;6.57;4.80;;;11.20;99.90;;;;;;4860976;29;20065;-66
2022/08/06 01:23:41;;;;;;;6.75;4.47;;;11.20;99.90;;;;;;4860257;29;20129;-66
2022/08/06 01:26:34;;;;;;;8.85;4.30;;;11.00;99.90;;;;;;4844087;29;20061;-66
2022/08/06 01:29:08;;;;;;;6.82;4.55;;;10.90;99.90;;;;;;4843095;29;20072;-66
2022/08/06 01:32:08;;;;;;;7.15;4.28;;;10.90;99.90;;;;;;4860304;29;20049;-66
2022/08/06 01:35:03;;;;;;;5.20;3.90;;;10.90;99.90;;;;;;4846024;29;20507;-66
2022/08/06 01:37:39;;;;;;;4.28;3.88;;;10.80;99.90;;;;;;4855171;29;20054;-66
2022/08/06 01:40:12;;;;;;;4.72;3.40;;;10.80;99.90;;;;;;4844039;29;20368;-66
2022/08/06 01:42:40;;;;;;;3.90;3.47;;;10.80;99.90;;;;;;4840934;29;20335;-66
2022/08/06 01:45:11;;;;;;;5.25;3.55;;;10.80;99.90;;;;;;4859331;29;20380;-66
2022/08/06 01:47:39;;;;;;;3.40;2.95;;;10.80;99.90;;;;;;4860054;29;20392;-66
2022/08/06 01:50:07;;;;;;;4.82;3.42;;;10.80;99.90;;;;;;4841578;29;20069;-66
2022/08/06 01:52:37;;;;;;;5.18;3.60;;;10.70;99.90;;;;;;4859884;29;20056;-66
2022/08/06 01:55:08;;;;;;;4.63;3.38;;;10.70;99.90;;;;;;4859545;29;20186;-67
2022/08/06 01:57:36;;;;;;;5.30;3.08;;;10.70;99.90;;;;;;4857106;29;20077;-66
2022/08/06 02:00:04;;;;;;;7.80;3.60;;;10.70;99.90;;;;;;4860190;29;20057;-66
2022/08/06 02:02:32;;;;;;;5.28;3.80;;;10.60;99.90;;;;;;4858877;29;20105;-66
2022/08/06 02:05:00;;;;;;;3.45;3.03;;;10.70;99.90;;;;;;4859259;29;20061;-66
2022/08/06 02:07:39;;;;;;;4.93;2.63;;;10.60;99.90;;;;;;4846448;29;20046;-66
2022/08/06 02:10:06;;;;;;;4.97;3.38;;;10.60;99.90;;;;;;4859584;29;20049;-66
2022/08/06 02:12:34;;;;;;;3.67;3.20;;;10.50;99.90;;;;;;4857038;29;20057;-66
2022/08/06 02:15:09;;;;;;;5.00;3.03;;;10.50;99.90;;;;;;4857033;29;20055;-66
2022/08/06 02:17:42;;;;;;;5.10;3.60;;;10.50;99.90;;;;;;4858445;29;20132;-66
2022/08/06 02:20:10;;;;;;;4.65;3.00;;;10.40;99.90;;;;;;4858476;29;20384;-66
2022/08/06 02:22:38;;;;;;;5.32;3.20;;;10.40;99.90;;;;;;4858045;29;20077;-67
2022/08/06 02:25:08;;;;;;;3.92;2.92;;;10.40;99.90;;;;;;4858346;29;20050;-66
2022/08/06 02:27:37;;;;;;;3.63;2.80;;;10.30;99.90;;;;;;4827025;29;20752;-66
2022/08/06 02:30:03;;;;;;;4.35;3.20;;;10.30;99.90;;;;;;4859246;29;20392;-66
2022/08/06 02:32:29;;;;;;;5.45;2.97;;;10.30;99.90;;;;;;4856716;29;20053;-66
2022/08/06 02:34:55;;;;;;;3.28;2.70;;;10.30;99.90;;;;;;4850828;29;20134;-66
2022/08/06 02:37:26;;;;;;;3.92;2.80;;;10.30;99.90;;;;;;4850977;29;20056;-66
2022/08/06 02:39:57;;;;;;;5.13;3.28;;;10.30;99.90;;;;;;4850929;29;20057;-66
2022/08/06 02:42:30;;;;;;;4.00;3.40;;;10.30;99.90;;;;;;4851808;29;20410;-66
2022/08/06 02:45:08;;;;;;;4.00;3.03;;;10.20;99.90;;;;;;4849460;29;20054;-66
2022/08/06 02:48:01;;;;;;;5.18;2.83;;;10.20;99.90;;;;;;4819072;29;20675;-66
2022/08/06 02:50:37;;;;;;;5.72;3.15;;;10.20;99.90;;;;;;4851187;29;20517;-66
2022/08/06 02:53:07;;;;;;;4.38;3.33;;;10.20;99.90;;;;;;4850550;29;20102;-66
2022/08/06 02:55:36;;;;;;;3.75;2.90;;;10.10;99.90;;;;;;4859503;29;20052;-66
2022/08/06 02:58:14;;;;;;;4.63;2.53;;;10.10;99.90;;;;;;4835421;29;20057;-66
2022/08/06 03:00:42;;;;;;;3.58;2.75;;;10.10;99.90;;;;;;4852020;29;20164;-66
2022/08/06 03:03:11;;;;;;;3.35;3.00;;;10.10;99.90;;;;;;4840624;29;20076;-66
2022/08/06 03:05:37;;;;;;;3.08;2.60;;;10.00;99.90;;;;;;4858347;29;20136;-66
2022/08/06 03:08:06;;;;;;;3.97;2.97;;;10.00;99.90;;;;;;4860518;29;20140;-66
2022/08/06 03:10:33;;;;;;;4.50;3.10;;;10.00;99.90;;;;;;4844159;29;20053;-66
2022/08/06 03:13:00;;;;;;;4.07;3.10;;;10.00;99.90;;;;;;4860245;29;20057;-66
2022/08/06 03:15:29;;;;;;;4.57;3.33;;;9.90;99.90;;;;;;4829213;29;20092;-66
2022/08/06 03:17:58;;;;;;;3.40;3.08;;;10.00;99.90;;;;;;4861084;29;20057;-66
2022/08/06 03:20:26;;;;;;;4.00;2.85;;;9.90;99.90;;;;;;4862763;29;20058;-66
2022/08/06 03:22:58;;;;;;;3.80;3.08;;;9.90;99.90;;;;;;4844676;29;20053;-66
2022/08/06 03:25:25;;;;;;;6.13;3.30;;;9.90;99.90;;;;;;4862459;29;20623;-66
2022/08/06 03:27:52;;;;;;;3.35;3.00;;;9.90;99.90;;;;;;4861534;29;20100;-66
2022/08/06 03:30:19;;;;;;;4.63;2.78;;;9.90;99.90;;;;;;4862803;29;20112;-66
2022/08/06 03:32:46;;;;;;;3.50;2.70;;;9.90;99.90;;;;;;4860259;29;20464;-66
2022/08/06 03:35:14;;;;;;;3.85;2.67;;;9.90;99.90;;;;;;4860996;29;20058;-66
2022/08/06 03:37:41;;;;;;;4.10;2.90;;;9.80;99.90;;;;;;4829021;29;20474;-66
2022/08/06 04:17:12;;;;;;;2.97;2.30;;;9.90;99.90;;;;;;4858409;29;20058;-67
2022/08/06 04:27:42;;;;;;;2.58;2.38;;;9.90;99.90;;;;;;4859485;29;20502;-66
2022/08/06 04:30:09;;;;;;;2.33;2.13;;;9.90;99.90;;;;;;4861911;29;20132;-66
2022/08/06 04:32:37;;;;;;;3.70;2.40;;;9.90;99.90;;;;;;4859117;29;20380;-66
2022/08/06 04:35:07;;;;;;;3.05;2.28;;;9.90;99.90;;;;;;4860284;29;20056;-66
2022/08/06 04:37:33;;;;;;;2.90;2.10;;;10.00;99.90;;;;;;4858955;29;20054;-66
2022/08/06 04:40:00;;;;;;;2.53;2.03;;;9.90;99.90;;;;;;4860030;29;20064;-67
2022/08/06 04:42:26;;;;;;;3.22;2.42;;;9.90;99.90;;;;;;4842586;29;20166;-66
2022/08/06 04:44:53;;;;;;;5.30;3.15;;;9.90;99.90;;;;;;4844184;29;20132;-66
2022/08/06 04:47:19;;;;;;;2.92;2.70;;;10.00;99.90;;;;;;4840555;29;20060;-66
2022/08/06 04:49:45;;;;;;;4.30;2.97;;;9.90;99.90;;;;;;4860930;29;20057;-67
2022/08/06 04:52:24;;;;;;;2.35;2.15;;;10.00;99.90;;;;;;4859995;29;20105;-66
2022/08/06 04:54:50;;;;;;;2.70;2.28;;;10.10;99.90;;;;;;4828782;29;20054;-66
2022/08/06 04:57:16;;;;;;;2.95;2.70;;;10.00;99.90;;;;;;4859577;29;20065;-66
2022/08/06 04:59:42;;;;;;;2.50;2.20;;;10.10;99.90;;;;;;4861444;29;20061;-66
2022/08/06 05:02:07;;;;;;;2.78;2.22;;;10.10;99.90;;;;;;4843580;29;20053;-66
2022/08/06 05:04:34;;;;;;;2.90;2.60;;;10.10;99.90;;;;;;4859385;29;20106;-66
2022/08/06 05:07:29;;;;;;;3.22;3.00;;;10.20;99.90;;;;;;4859109;29;20474;-67
2022/08/06 05:09:56;;;;;;;3.33;2.78;;;10.30;99.90;;;;;;4860052;29;20064;-67
2022/08/06 05:12:33;;;;;;;4.18;3.17;;;10.30;99.90;;;;;;4844285;29;20391;-66
2022/08/06 05:15:10;;;;;;;3.25;3.00;;;10.30;99.90;;;;;;4859324;29;20049;-66
2022/08/06 05:17:40;;;;;;;4.75;3.03;;;10.40;99.90;;;;;;4860093;29;20054;-66
2022/08/06 05:20:18;;;;;;;3.13;2.80;;;10.50;99.90;;;;;;4840720;29;20070;-66
2022/08/06 05:22:47;;;;;;;7.47;3.00;;;10.50;99.90;;;;;;4852328;29;20053;-66
2022/08/06 05:25:13;;;;;;;5.15;3.25;;;10.60;99.90;;;;;;4859472;29;20511;-66
2022/08/06 05:27:40;;;;;;;3.85;3.10;;;10.70;99.90;;;;;;4860725;29;20145;-65
2022/08/06 05:30:07;;;;;;;2.78;2.35;;;10.80;99.90;;;;;;4867979;29;20081;-66
2022/08/06 05:32:47;;;;;;;2.97;2.72;;;10.90;99.90;;;;;;4842892;29;20053;-66
2022/08/06 05:35:13;;;;;;;3.60;2.58;;;11.00;99.90;;;;;;4841364;29;20053;-67
2022/08/06 05:37:39;;;;;;;3.95;2.80;;;11.00;99.90;;;;;;4853420;29;20460;-67
2022/08/06 05:40:06;;;;;;;3.20;2.65;;;11.10;99.90;;;;;;4856285;29;20388;-67
2022/08/06 05:42:32;;;;;;;2.90;2.70;;;11.30;99.90;;;;;;4836054;29;20084;-67
2022/08/06 05:44:59;;;;;;;2.60;2.40;;;11.50;99.90;;;;;;4855885;29;20068;-67
2022/08/06 05:47:28;;;;;;;3.63;2.67;;;11.60;99.90;;;;;;4853189;29;20049;-66
2022/08/06 05:50:06;;;;;;;2.88;2.67;;;12.10;99.90;;;;;;4853707;29;20053;-67
2022/08/06 05:52:56;;;;;;;2.50;2.30;;;13.30;99.90;;;;;;4849963;29;20114;-66
2022/08/06 05:55:30;;;;;;;3.58;2.20;;;14.90;99.90;;;;;;4853984;29;20058;-66
2022/08/06 05:58:01;;;;;;;5.28;2.10;;;16.30;99.90;;;;;;4852518;29;20132;-65
2022/08/06 06:00:31;;;;;;;8.13;2.22;;;17.30;99.90;;;;;;4859313;29;20061;-65
2022/08/06 06:02:59;;;;;;;1.80;1.55;;;18.20;99.90;;;;;;4862457;29;20057;-65
2022/08/06 06:05:25;;;;;;;3.38;1.80;;;18.90;99.90;;;;;;4854327;29;20094;-65
2022/08/06 06:07:52;;;;;;;1.80;1.70;;;19.30;99.90;;;;;;4855784;29;20046;-66
2022/08/06 06:10:18;;;;;;;3.10;1.73;;;19.90;99.90;;;;;;4860274;29;20080;-65
2022/08/06 06:12:44;;;;;;;2.15;1.60;;;20.10;99.90;;;;;;4842810;29;20481;-66
2022/08/06 06:15:13;;;;;;;1.70;1.60;;;20.40;99.90;;;;;;4832240;29;20432;-65
2022/08/06 06:18:01;;;;;;;1.88;1.63;;;20.60;99.90;;;;;;4859441;29;20053;-65
2022/08/06 06:20:45;;;;;;;2.03;1.50;;;20.70;99.90;;;;;;4842179;29;20054;-65
2022/08/06 06:23:25;;;;;;;2.10;1.60;;;20.90;99.90;;;;;;4825754;29;20172;-67
2022/08/06 06:26:03;;;;;;;2.25;1.40;;;20.40;99.90;;;;;;4825944;29;20368;-67
2022/08/06 06:28:48;;;;;;;2.45;1.30;;;19.50;99.90;;;;;;4825926;29;20090;-68
2022/08/06 06:31:35;;;;;;;1.75;1.30;;;18.60;99.90;;;;;;4842077;29;20061;-68
2022/08/06 06:34:11;;;;;;;2.75;1.65;;;17.90;99.90;;;;;;4836798;29;20057;-68
2022/08/06 06:40:19;;;;;;;2.20;1.75;;;17.20;99.90;;;;;;4878724;29;20593;-67
2022/08/06 06:46:07;;;;;;;2.83;1.83;;;16.90;99.90;;;;;;4882699;29;20492;-68
2022/08/06 06:48:46;;;;;;;3.72;1.90;;;16.90;99.90;;;;;;4855834;29;20109;-68
2022/08/06 06:51:30;;;;;;;2.67;2.10;;;17.00;99.90;;;;;;4847216;29;20175;-67
2022/08/06 06:53:56;;;;;;;4.03;2.10;;;17.10;99.90;;;;;;4861851;29;20060;-68
2022/08/06 06:56:26;;;;;;;3.85;2.08;;;17.20;99.90;;;;;;4863625;29;20048;-68
2022/08/06 06:58:58;;;;;;;1.90;1.70;;;17.20;99.90;;;;;;4847212;29;20486;-68
2022/08/06 07:01:24;;;;;;;3.63;2.20;;;17.20;99.90;;;;;;4831856;29;20441;-68
2022/08/06 07:04:16;;;;;;;2.85;1.60;;;17.30;99.90;;;;;;4863964;29;20057;-67
2022/08/06 07:06:48;;;;;;;3.15;2.10;;;17.30;99.90;;;;;;4863178;29;20216;-68
2022/08/06 07:09:36;;;;;;;2.30;1.60;;;17.30;99.90;;;;;;4846913;29;20081;-67
2022/08/06 07:12:03;;;;;;;2.63;1.90;;;17.40;99.90;;;;;;4863517;29;20056;-67
2022/08/06 07:14:31;;;;;;;3.00;2.25;;;17.50;99.90;;;;;;4881208;29;20092;-67
2022/08/06 07:16:59;;;;;;;3.60;2.13;;;17.60;99.90;;;;;;4882181;29;20060;-68
2022/08/06 07:19:54;;;;;;;3.00;1.90;;;17.70;99.90;;;;;;4850118;29;20056;-67
2022/08/06 07:22:50;;;;;;;1.50;1.40;;;17.80;99.90;;;;;;4864713;29;20061;-68
2022/08/06 07:26:07;;;;;;;1.77;1.60;;;18.00;99.90;;;;;;4865348;29;20129;-68
2022/08/06 07:28:33;;;;;;;2.80;1.38;;;18.10;99.90;;;;;;4853404;29;20492;-67
2022/08/06 07:31:03;;;;;;;2.13;1.52;;;18.20;99.90;;;;;;4864231;29;20089;-67
2022/08/06 07:33:34;;;;;;;4.50;1.30;;;18.20;99.90;;;;;;4846655;29;20065;-68
2022/08/06 07:36:02;;;;;;;1.75;1.10;;;18.40;99.90;;;;;;4846071;29;20769;-68
2022/08/06 07:38:28;;;;;;;1.42;0.70;;;18.50;99.90;;;;;;4863329;29;20050;-67
2022/08/06 07:41:04;;;;;;;2.80;1.05;;;18.70;99.90;;;;;;4831623;29;20057;-68
2022/08/06 07:43:55;;;;;;;2.85;0.90;;;18.70;99.90;;;;;;4846677;29;20475;-68
2022/08/06 07:46:25;;;;;;;1.80;1.00;;;18.70;99.90;;;;;;4864706;29;20098;-68
2022/08/06 07:49:01;;;;;;;2.55;0.98;;;18.70;99.90;;;;;;4863470;29;20120;-67
2022/08/06 07:51:39;;;;;;;1.38;0.85;;;18.90;99.90;;;;;;4862216;29;20114;-68
2022/08/06 07:54:06;;;;;;;2.83;0.80;;;18.80;99.90;;;;;;4846340;29;20058;-67
2022/08/06 07:56:43;;;;;;;2.05;1.00;;;19.00;99.90;;;;;;4862993;29;20118;-70
2022/08/06 08:06:17;;;;;;;1.63;0.85;;;19.20;99.90;;;;;;4827417;29;20093;-69
2022/08/06 08:06:25;;;;;;;0.93;0.52;;;19.40;99.90;;;;;;4823197;29;20140;-69
2022/08/06 08:09:16;;;;;;;1.92;0.68;;;19.60;99.90;;;;;;4808742;29;20058;-68
2022/08/06 08:11:44;;;;;;;1.70;0.73;;;19.70;99.90;;;;;;4823800;29;20443;-67
2022/08/06 08:14:12;;;;;;;3.30;0.70;;;19.90;99.90;;;;;;4824701;29;20062;-67
2022/08/06 08:16:40;;;;;;;2.05;0.45;;;20.00;99.90;;;;;;4838251;29;20085;-69
2022/08/06 08:27:09;;;;;;;1.00;0.47;;;20.40;99.90;;;;;;4841815;29;20050;-67
2022/08/06 08:29:35;;;;;;;1.77;0.43;;;20.30;99.90;;;;;;4826608;29;20118;-68
2022/08/06 08:32:06;;;;;;;1.60;0.63;;;20.50;99.90;;;;;;4828595;29;20061;-68
2022/08/06 08:34:56;;;;;;;2.67;0.80;;;20.40;99.90;;;;;;4841945;29;20145;-68
2022/08/06 08:37:23;;;;;;;3.00;0.85;;;20.10;98.80;;;;;;4841448;29;20503;-68
2022/08/06 08:39:48;;;;;;;0.40;0.30;;;19.80;99.90;;;;;;4845929;29;20095;-68
2022/08/06 08:46:09;;;;;;;2.05;0.47;;;19.40;99.90;;;;;;4862229;29;20110;-68
2022/08/06 08:49:25;;;;;;;2.58;0.50;;;19.60;99.90;;;;;;4861824;29;20356;-68
2022/08/06 08:51:51;;;;;;;3.10;0.50;;;19.90;99.90;;;;;;4861492;29;20056;-68
2022/08/06 08:54:24;;;;;;;1.15;0.40;;;20.40;99.90;;;;;;4845393;29;20120;-68
2022/08/06 08:56:50;;;;;;;1.77;0.50;;;20.60;99.90;;;;;;4845329;29;20059;-68
2022/08/06 08:59:16;;;;;;;1.38;0.50;;;20.70;98.70;;;;;;4845447;29;20080;-68
2022/08/06 09:02:27;;;;;;;1.50;0.60;;;20.70;96.50;;;;;;4861712;29;20495;-68
2022/08/06 09:04:39;;;;;;;1.30;0.45;;;20.90;96.00;;;;;;4855328;29;20057;-68
2022/08/06 09:07:56;;;;;;;2.78;0.50;;;20.70;94.60;;;;;;4843900;29;20054;-68
2022/08/06 09:10:24;;;;;;;2.55;0.55;;;21.00;92.80;;;;;;4844921;29;20086;-68
2022/08/06 09:12:50;;;;;;;1.25;0.70;;;21.10;96.40;;;;;;4861826;29;20045;-68
2022/08/06 09:15:19;;;;;;;1.17;0.80;;;21.10;93.60;;;;;;4845062;29;20484;-68
2022/08/06 09:17:51;;;;;;;0.88;0.60;;;21.10;92.70;;;;;;4861834;29;20049;-68
2022/08/06 09:20:20;;;;;;;2.20;0.70;;;21.20;86.90;;;;;;4861612;29;20072;-68
2022/08/06 09:22:50;;;;;;;1.05;0.90;;;21.30;89.60;;;;;;4850752;29;20045;-69
2022/08/06 09:25:51;;;;;;;1.88;0.82;;;21.30;87.50;;;;;;4863013;29;20455;-68
2022/08/06 09:28:30;;;;;;;3.72;1.25;;;21.30;90.50;;;;;;4879808;29;20364;-69
2022/08/06 09:31:03;;;;;;;2.30;1.20;;;21.40;90.60;;;;;;4863019;29;20549;-68
2022/08/06 09:33:34;;;;;;;1.90;1.48;;;21.20;82.10;;;;;;4863150;29;20514;-68
2022/08/06 09:36:08;;;;;;;2.65;1.33;;;20.90;86.70;;;;;;4864855;29;20061;-69
2022/08/06 09:38:51;;;;;;;2.97;1.40;;;20.80;90.90;;;;;;4845003;29;20462;-69
2022/08/06 09:41:49;;;;;;;3.08;1.42;;;20.90;90.00;;;;;;4842801;29;20058;-68
2022/08/06 09:44:14;;;;;;;2.15;1.60;;;21.20;90.70;;;;;;4842435;29;20054;-69
2022/08/06 09:46:46;;;;;;;2.80;1.50;;;21.30;87.90;;;;;;4843222;29;20385;-68
2022/08/06 09:52:12;;;;;;;1.83;1.33;;;21.20;82.50;;;;;;4857796;29;20057;-68
2022/08/06 09:54:39;;;;;;;3.17;1.50;;;21.20;79.60;;;;;;4861308;29;20046;-67
2022/08/06 09:57:04;;;;;;;2.47;1.30;;;20.90;85.20;;;;;;4860438;29;20057;-68
2022/08/06 09:59:41;;;;;;;3.17;1.67;;;20.70;87.00;;;;;;4859555;29;20057;-67
2022/08/06 10:02:13;;;;;;;2.45;1.70;;;20.70;84.10;;;;;;4860954;29;20054;-68
2022/08/06 10:04:39;;;;;;;2.47;1.80;;;20.60;81.90;;;;;;4861864;29;20064;-68
2022/08/06 10:07:05;;;;;;;2.90;1.50;;;20.70;82.20;;;;;;4847083;29;20062;-68
2022/08/06 10:09:32;;;;;;;1.85;1.60;;;21.00;78.70;;;;;;4843932;29;20053;-68
2022/08/06 10:11:58;;;;;;;2.40;1.67;;;21.30;74.20;;;;;;4860686;29;20535;-69
2022/08/06 10:14:29;;;;;;;1.98;1.70;;;21.40;72.50;;;;;;4844642;29;20050;-68
2022/08/06 10:17:16;;;;;;;2.42;1.80;;;21.60;69.30;;;;;;4860536;29;20132;-68
2022/08/06 10:19:46;;;;;;;2.50;1.60;;;21.40;67.40;;;;;;4860614;29;20152;-68
2022/08/06 10:22:15;;;;;;;1.73;1.60;;;21.10;69.50;;;;;;4860245;29;20049;-68
2022/08/06 10:24:43;;;;;;;2.20;1.58;;;21.00;69.60;;;;;;4843289;29;20049;-68
2022/08/06 10:27:25;;;;;;;1.98;1.70;;;21.10;70.20;;;;;;4844153;29;20049;-68
2022/08/06 10:33:10;;;;;;;2.05;1.65;;;21.10;69.80;;;;;;4859849;29;20191;-68
2022/08/06 10:42:43;;;;;;;1.90;1.58;;;22.30;65.90;;;;;;4859396;29;20534;-67
2022/08/06 10:45:11;;;;;;;2.08;1.33;;;22.40;65.60;;;;;;4862679;29;20041;-67
2022/08/06 10:47:38;;;;;;;5.72;1.70;;;22.20;64.80;;;;;;4860035;29;20077;-67
2022/08/06 10:50:04;;;;;;;2.47;1.75;;;22.00;65.10;;;;;;4859099;29;20044;-67
2022/08/06 10:52:31;;;;;;;1.92;1.50;;;21.80;66.20;;;;;;4842423;29;20045;-66
2022/08/06 10:54:59;;;;;;;2.38;1.40;;;21.50;67.10;;;;;;4842795;29;20076;-67
2022/08/06 10:57:26;;;;;;;1.73;1.40;;;21.40;68.70;;;;;;4858159;29;20052;-67
2022/08/06 10:59:53;;;;;;;2.97;1.80;;;21.20;69.80;;;;;;4860180;29;20077;-66
2022/08/06 11:02:45;;;;;;;3.80;1.70;;;21.00;70.40;;;;;;4859926;29;20049;-66
2022/08/06 11:05:13;;;;;;;2.13;1.40;;;21.10;71.00;;;;;;4860200;29;20395;-66
2022/08/06 11:08:22;;;;;;;1.88;1.30;;;21.10;71.70;;;;;;4859673;29;20057;-67
2022/08/06 11:11:32;;;;;;;2.67;1.48;;;21.10;72.50;;;;;;4847420;29;20061;-67
2022/08/06 11:14:11;;;;;;;1.98;1.20;;;21.20;73.10;;;;;;4851841;29;20117;-67
2022/08/06 11:16:37;;;;;;;3.35;1.30;;;21.30;73.20;;;;;;4848715;29;20077;-66
2022/08/06 11:19:11;;;;;;;2.22;1.10;;;21.30;73.90;;;;;;4857970;29;20056;-66
2022/08/06 11:21:45;;;;;;;2.10;1.27;;;21.50;74.30;;;;;;4859141;29;20185;-67
2022/08/06 11:24:49;;;;;;;2.83;1.38;;;21.50;74.70;;;;;;4860482;29;20371;-66
2022/08/06 11:27:51;;;;;;;2.13;1.20;;;21.50;73.30;;;;;;4828186;29;20431;-67
2022/08/06 11:30:21;;;;;;;1.40;1.17;;;21.50;72.90;;;;;;4871599;29;20041;-66
2022/08/06 11:32:52;;;;;;;1.88;1.48;;;21.40;73.40;;;;;;4861272;29;20120;-67
2022/08/06 11:35:33;;;;;;;4.57;1.50;;;21.40;72.60;;;;;;4861352;29;20183;-66
2022/08/06 11:38:08;;;;;;;1.42;1.10;;;21.50;71.70;;;;;;4846861;29;20130;-66
2022/08/06 11:41:07;;;;;;;2.40;1.23;;;21.50;71.80;;;;;;4846762;29;20045;-66
2022/08/06 11:44:06;;;;;;;3.97;1.35;;;21.50;68.90;;;;;;4863468;29;20089;-67
2022/08/06 11:46:39;;;;;;;3.85;1.23;;;21.60;68.40;;;;;;4862181;29;20045;-66
2022/08/06 11:49:18;;;;;;;2.03;1.30;;;21.60;69.90;;;;;;4863314;29;20046;-66
2022/08/06 11:51:46;;;;;;;2.38;1.42;;;21.70;68.70;;;;;;4875194;29;20491;-66
2022/08/06 11:54:26;;;;;;;2.17;1.20;;;21.90;68.60;;;;;;4862391;29;20114;-67
2022/08/06 11:57:29;;;;;;;2.83;1.25;;;22.10;65.40;;;;;;4860819;29;20254;-68
2022/08/06 12:00:35;;;;;;;;;;;22.10;63.90;;;;;;4863739;29;20072;-67
2022/08/06 12:03:01;;;;;;;3.33;1.58;;;22.10;63.80;;;;;;4845970;29;19920;-67
2022/08/06 12:05:27;;;;;;;3.40;1.20;;;22.20;66.10;;;;;;4859358;29;20052;-67
2022/08/06 12:16:47;;;;;;;;;;;;;;;;;;;;;
2022/08/06 12:23:58;;;;;;;2.17;1.35;;;22.20;63.70;;;;;;4874738;29;20036;-66
2022/08/06 12:26:34;;;;;;;3.13;1.50;;;22.30;63.50;;;;;;4860212;29;20411;-67
2022/08/06 12:29:03;;;;;;;2.65;1.42;;;22.30;64.40;;;;;;4825805;29;20038;-67
2022/08/06 12:31:34;;;;;;;2.03;1.40;;;22.20;64.00;;;;;;4835146;29;20483;-68
2022/08/06 12:34:01;;;;;;;2.47;1.30;;;22.10;63.30;;;;;;4862591;29;20056;-68
2022/08/06 12:36:34;;;;;;;2.70;1.42;;;22.20;64.40;;;;;;4845173;29;20042;-66
2022/08/06 12:39:01;;;;;;;2.28;1.40;;;22.00;64.30;;;;;;4861885;29;20045;-66
2022/08/06 12:41:38;;;;;;;5.45;1.73;;;22.00;64.50;;;;;;4861120;29;20402;-68
2022/08/06 12:44:03;;;;;;;4.22;1.50;;;22.20;65.30;;;;;;4861763;29;20090;-67
2022/08/06 12:46:29;;;;;;;2.17;1.70;;;22.20;65.40;;;;;;4862000;29;20054;-66
2022/08/06 12:48:55;;;;;;;3.53;1.58;;;22.30;65.30;;;;;;4845293;29;20049;-65
2022/08/06 12:51:21;;;;;;;3.97;2.13;;;22.30;65.90;;;;;;4861765;29;20061;-66
2022/08/06 12:53:59;;;;;;;3.22;1.60;;;22.40;65.90;;;;;;4861945;29;20219;-66
2022/08/06 12:56:26;;;;;;;4.13;1.60;;;22.40;63.70;;;;;;4845672;29;20049;-67
2022/08/06 12:58:54;;;;;;;1.80;1.52;;;22.30;64.60;;;;;;4860223;29;20045;-67
2022/08/06 13:01:26;;;;;;;2.22;1.70;;;22.30;64.90;;;;;;4861351;29;20519;-67
2022/08/06 13:04:04;;;;;;;1.75;1.50;;;22.10;64.40;;;;;;4859904;29;20409;-66
2022/08/06 13:07:32;;;;;;;;;;;;;;;;;;;;;
2022/08/06 13:18:43;;;;;;;2.30;1.50;;;21.80;63.50;;;;;;4855932;29;20068;-68
2022/08/06 13:25:21;;;;;;;3.53;1.80;;;21.70;64.40;;;;;;4844494;29;20053;-67
2022/08/06 13:27:49;;;;;;;1.88;1.48;;;21.70;63.90;;;;;;4828639;29;20443;-66
2022/08/06 13:30:16;;;;;;;2.28;1.70;;;21.70;65.20;;;;;;4865639;29;20059;-66
2022/08/06 13:32:43;;;;;;;3.15;2.00;;;21.80;65.40;;;;;;4860891;29;20435;-66
2022/08/06 13:35:12;;;;;;;1.83;1.63;;;21.80;65.90;;;;;;4861668;29;20132;-66
2022/08/06 13:37:49;;;;;;;2.38;2.08;;;21.80;66.80;;;;;;4860716;29;20566;-66
2022/08/06 13:40:15;;;;;;;2.60;1.77;;;22.00;66.10;;;;;;4844455;29;20499;-67
2022/08/06 13:42:48;;;;;;;2.50;1.90;;;22.00;65.90;;;;;;4859266;29;20061;-67
2022/08/06 13:45:27;;;;;;;2.63;1.92;;;22.00;64.90;;;;;;4861064;29;20046;-67
2022/08/06 13:59:45;;;;;;;2.33;1.90;;;22.10;63.20;;;;;;4839093;29;20077;-66
2022/08/06 14:02:11;;;;;;;2.65;1.70;;;22.10;63.50;;;;;;4840326;29;20415;-66
2022/08/06 14:04:37;;;;;;;2.33;1.80;;;22.00;62.60;;;;;;4843052;29;20120;-66
2022/08/06 14:07:02;;;;;;;4.85;1.60;;;22.00;62.90;;;;;;4840047;29;20064;-66
2022/08/06 14:09:30;;;;;;;2.92;1.73;;;22.00;63.10;;;;;;4841327;29;20145;-65
2022/08/06 14:12:07;;;;;;;2.58;1.80;;;22.10;63.50;;;;;;4842288;29;20053;-67
2022/08/06 14:14:33;;;;;;;2.78;2.00;;;22.30;63.80;;;;;;4841352;29;20062;-67
2022/08/06 14:16:59;;;;;;;2.00;1.77;;;22.50;63.50;;;;;;4841740;29;20054;-68
2022/08/06 14:19:26;;;;;;;2.55;1.95;;;22.50;62.40;;;;;;4842389;29;20053;-68
2022/08/06 14:21:52;;;;;;;3.55;2.00;;;22.60;62.40;;;;;;4841001;29;20054;-68
2022/08/06 14:24:17;;;;;;;1.75;1.55;;;22.60;62.30;;;;;;4841241;29;20053;-67
2022/08/06 14:26:43;;;;;;;2.67;1.80;;;22.50;62.40;;;;;;4825446;29;20400;-68
2022/08/06 14:29:09;;;;;;;3.00;2.13;;;22.50;62.70;;;;;;4841701;29;20069;-68
2022/08/06 14:31:34;;;;;;;2.20;1.90;;;22.30;62.20;;;;;;4842357;29;20193;-68
2022/08/06 14:34:00;;;;;;;3.90;2.20;;;22.20;62.80;;;;;;4842202;29;20550;-68
2022/08/06 14:36:27;;;;;;;2.30;2.10;;;22.00;62.80;;;;;;4840016;29;20524;-68
2022/08/06 14:38:53;;;;;;;2.97;1.85;;;21.90;64.00;;;;;;4842204;29;20058;-69
2022/08/06 14:46:47;;;;;;;2.28;1.52;;;21.70;64.10;;;;;;4840957;29;20054;-67
2022/08/06 14:49:12;;;;;;;2.50;1.40;;;21.70;65.40;;;;;;4842068;29;20385;-69
2022/08/06 14:51:38;;;;;;;2.22;1.67;;;21.90;64.40;;;;;;4840732;29;20189;-68
2022/08/06 14:54:04;;;;;;;2.95;1.50;;;22.20;63.40;;;;;;4842092;29;20065;-69
2022/08/06 14:56:30;;;;;;;4.93;2.00;;;22.30;62.10;;;;;;4841957;29;20058;-69
2022/08/06 14:58:55;;;;;;;3.15;1.90;;;22.30;61.50;;;;;;4840373;29;20475;-68
2022/08/06 15:01:21;;;;;;;1.55;1.45;;;22.00;61.40;;;;;;4839548;29;20108;-67
2022/08/06 15:03:46;;;;;;;1.92;1.42;;;21.80;61.20;;;;;;4839934;29;20069;-68
2022/08/06 15:06:12;;;;;;;2.63;1.75;;;21.70;61.70;;;;;;4825046;29;20054;-67
2022/08/06 15:08:38;;;;;;;1.90;1.60;;;21.60;62.20;;;;;;4839473;29;20058;-68
2022/08/06 15:11:04;;;;;;;3.95;1.77;;;21.60;62.40;;;;;;4839552;29;20057;-67
2022/08/06 15:13:29;;;;;;;1.95;1.70;;;21.60;62.60;;;;;;4826103;29;20063;-68
2022/08/06 15:15:55;;;;;;;1.85;1.40;;;21.70;62.50;;;;;;4854351;29;20089;-68
2022/08/06 15:18:21;;;;;;;2.67;1.55;;;21.70;62.00;;;;;;4844173;29;20149;-68
2022/08/06 15:20:46;;;;;;;2.33;1.50;;;21.70;62.10;;;;;;4842401;29;20093;-67
2022/08/06 15:23:12;;;;;;;2.88;1.60;;;21.80;61.90;;;;;;4842895;29;20050;-67